createdAt,value
2023-07-03T00:01:21.333Z,28.52
2023-07-03T00:03:53.109Z,26.52
2023-07-03T00:06:21.470Z,21.95
2023-07-03T00:08:49.564Z,20.20
2023-07-03T00:11:17.706Z,30.65
2023-07-03T00:13:47.360Z,23.60
2023-07-03T00:16:15.488Z,24.02
2023-07-03T00:18:43.591Z,25.85
2023-07-03T00:21:12.031Z,24.55
2023-07-03T00:23:40.126Z,33.05
2023-07-03T00:26:08.248Z,25.90
2023-07-03T00:28:36.373Z,30.10
2023-07-03T00:31:05.874Z,22.15
2023-07-03T00:33:34.016Z,25.60
2023-07-03T00:36:02.156Z,23.90
2023-07-03T00:38:30.227Z,28.23
2023-07-03T00:40:58.349Z,27.13
2023-07-03T00:43:27.928Z,30.65
2023-07-03T00:45:56.370Z,28.08
2023-07-03T00:48:26.003Z,27.58
2023-07-03T00:50:54.116Z,28.05
2023-07-03T00:53:22.244Z,24.58
2023-07-03T00:55:50.674Z,32.08
2023-07-03T00:58:18.987Z,22.70
2023-07-03T01:00:48.990Z,29.58
2023-07-03T01:03:19.029Z,31.30
2023-07-03T01:05:49.790Z,28.27
2023-07-03T01:08:18.165Z,25.63
2023-07-03T01:10:46.309Z,28.10
2023-07-03T01:13:15.837Z,24.23
2023-07-03T01:15:44.742Z,28.73
2023-07-03T01:18:13.034Z,30.67
2023-07-03T01:20:42.858Z,29.42
2023-07-03T01:23:16.565Z,24.40
2023-07-03T01:25:46.055Z,27.75
2023-07-03T01:28:15.173Z,23.98
2023-07-03T01:30:43.929Z,27.10
2023-07-03T01:33:14.783Z,24.05
2023-07-03T01:35:43.026Z,25.80
2023-07-03T01:38:11.161Z,24.48
2023-07-03T01:40:39.429Z,27.65
2023-07-03T01:43:09.127Z,26.83
2023-07-03T01:45:41.826Z,28.25
2023-07-03T01:48:10.003Z,26.15
2023-07-03T01:50:38.200Z,24.88
2023-07-03T01:53:08.043Z,28.08
2023-07-03T01:55:40.645Z,27.55
2023-07-03T01:58:13.605Z,28.77
2023-07-03T02:00:43.404Z,25.25
2023-07-03T02:03:27.056Z,24.08
2023-07-03T02:05:56.232Z,27.35
2023-07-03T02:08:24.413Z,28.83
2023-07-03T02:10:52.553Z,28.38
2023-07-03T02:13:22.067Z,26.73
2023-07-03T02:15:50.571Z,35.42
2023-07-03T02:18:22.129Z,29.95
2023-07-03T02:20:51.729Z,27.23
2023-07-03T02:23:19.858Z,28.17
2023-07-03T02:25:48.050Z,33.15
2023-07-03T02:28:16.217Z,25.00
2023-07-03T02:30:45.733Z,26.92
2023-07-03T02:33:13.858Z,24.92
2023-07-03T02:35:42.837Z,24.38
2023-07-03T02:38:11.080Z,23.85
2023-07-03T02:40:39.284Z,32.08
2023-07-03T02:43:07.369Z,30.00
2023-07-03T02:45:37.197Z,28.15
2023-07-03T02:48:07.291Z,23.45
2023-07-03T02:50:35.438Z,26.58
2023-07-03T02:53:03.607Z,23.70
2023-07-03T02:55:31.716Z,31.73
2023-07-03T02:58:00.173Z,22.58
2023-07-03T03:00:29.379Z,22.63
2023-07-03T03:02:57.724Z,26.45
2023-07-03T03:05:27.371Z,22.33
2023-07-03T03:07:55.491Z,26.35
2023-07-03T03:10:23.606Z,23.40
2023-07-03T03:12:51.718Z,23.27
2023-07-03T03:15:20.050Z,31.70
2023-07-03T03:17:48.200Z,25.63
2023-07-03T03:20:16.426Z,22.23
2023-07-03T03:22:45.908Z,25.70
2023-07-03T03:25:14.158Z,30.15
2023-07-03T03:27:42.277Z,35.17
2023-07-03T03:30:11.640Z,27.48
2023-07-03T03:32:39.930Z,27.83
2023-07-03T03:35:09.308Z,25.73
2023-07-03T03:37:37.531Z,22.23
2023-07-03T03:40:10.120Z,25.25
2023-07-03T03:42:38.302Z,24.58
2023-07-03T03:45:06.925Z,26.25
2023-07-03T03:47:35.141Z,26.85
2023-07-03T03:50:03.324Z,23.33
2023-07-03T03:52:31.449Z,25.23
2023-07-03T03:55:00.161Z,26.17
2023-07-03T03:57:29.717Z,29.17
2023-07-03T03:59:57.821Z,27.67
2023-07-03T04:02:26.033Z,25.05
2023-07-03T04:04:54.245Z,26.08
2023-07-03T04:07:22.363Z,27.30
2023-07-03T04:09:50.517Z,25.52
2023-07-03T04:12:19.219Z,24.83
2023-07-03T04:14:48.788Z,30.10
2023-07-03T04:17:16.852Z,23.30
2023-07-03T04:19:45.008Z,24.60
2023-07-03T04:22:13.149Z,24.35
2023-07-03T04:24:41.319Z,25.08
2023-07-03T04:27:09.521Z,27.75
2023-07-03T04:29:37.726Z,22.67
2023-07-03T04:32:08.213Z,31.55
2023-07-03T04:34:36.398Z,21.10
2023-07-03T04:37:04.996Z,27.98
2023-07-03T04:39:33.215Z,27.98
2023-07-03T04:42:02.053Z,30.70
2023-07-03T04:44:30.393Z,26.38
2023-07-03T04:46:58.561Z,25.52
2023-07-03T04:49:28.603Z,21.95
2023-07-03T04:51:57.175Z,31.58
2023-07-03T04:54:26.007Z,25.88
2023-07-03T04:56:54.253Z,21.40
2023-07-03T04:59:22.584Z,27.13
2023-07-03T05:01:50.838Z,27.00
2023-07-03T05:04:19.151Z,23.27
2023-07-03T05:06:48.823Z,25.73
2023-07-03T05:09:17.032Z,30.80
2023-07-03T05:11:45.272Z,24.13
2023-07-03T05:14:13.379Z,28.30
2023-07-03T05:16:41.658Z,27.08
2023-07-03T05:19:09.781Z,28.90
2023-07-03T05:21:37.956Z,30.00
2023-07-03T05:24:07.655Z,31.25
2023-07-03T05:26:35.830Z,25.80
2023-07-03T05:29:04.034Z,27.75
2023-07-03T05:31:32.246Z,28.80
2023-07-03T05:34:00.421Z,29.40
2023-07-03T05:36:28.566Z,29.33
2023-07-03T05:38:56.783Z,26.20
2023-07-03T05:41:26.319Z,26.05
2023-07-03T05:43:54.480Z,27.77
2023-07-03T05:46:22.644Z,23.83
2023-07-03T05:48:51.560Z,30.15
2023-07-03T05:51:19.677Z,25.65
2023-07-03T05:53:47.873Z,20.42
2023-07-03T05:56:15.999Z,27.05
2023-07-03T05:58:45.508Z,24.83
2023-07-03T06:01:13.772Z,27.15
2023-07-03T06:03:44.960Z,24.70
2023-07-03T06:06:13.971Z,23.85
2023-07-03T06:08:42.804Z,25.45
2023-07-03T06:11:11.880Z,23.00
2023-07-03T06:13:40.934Z,24.30
2023-07-03T06:16:11.280Z,25.50
2023-07-03T06:18:39.394Z,27.63
2023-07-03T06:21:07.538Z,29.15
2023-07-03T06:23:35.797Z,29.15
2023-07-03T06:26:04.001Z,33.58
2023-07-03T06:28:32.098Z,27.98
2023-07-03T06:31:00.419Z,23.30
2023-07-03T06:33:30.046Z,25.17
2023-07-03T06:35:58.155Z,30.35
2023-07-03T06:38:26.274Z,22.13
2023-07-03T06:40:58.532Z,26.13
2023-07-03T06:43:26.709Z,24.23
2023-07-03T06:45:57.266Z,22.40
2023-07-03T06:48:26.667Z,22.60
2023-07-03T06:51:04.460Z,21.67
2023-07-03T06:53:32.645Z,18.05
2023-07-03T06:56:01.388Z,19.73
2023-07-03T06:58:31.288Z,26.02
2023-07-03T07:01:00.594Z,26.08
2023-07-03T07:03:30.043Z,24.80
2023-07-03T07:05:59.471Z,24.17
2023-07-03T07:08:29.361Z,22.40
2023-07-03T07:10:57.624Z,21.35
2023-07-03T07:13:25.775Z,24.17
2023-07-03T07:15:53.934Z,18.80
2023-07-03T07:18:22.122Z,23.98
2023-07-03T07:20:50.379Z,20.63
2023-07-03T07:23:18.493Z,18.48
2023-07-03T07:25:58.425Z,22.50
2023-07-03T07:28:27.854Z,26.58
2023-07-03T07:30:57.022Z,16.42
2023-07-03T07:33:26.211Z,20.55
2023-07-03T07:35:56.364Z,16.55
2023-07-03T07:38:24.900Z,21.98
2023-07-03T07:41:03.009Z,17.30
2023-07-03T07:43:31.671Z,23.23
2023-07-03T07:46:00.605Z,21.10
2023-07-03T07:48:30.601Z,20.85
2023-07-03T07:51:01.872Z,18.63
2023-07-03T07:53:32.011Z,19.52
2023-07-03T07:56:02.143Z,22.08
2023-07-03T07:58:30.888Z,17.73
2023-07-03T08:00:59.447Z,13.98
2023-07-03T08:03:29.122Z,24.80
2023-07-03T08:06:05.933Z,16.25
2023-07-03T08:08:36.674Z,16.38
2023-07-03T08:11:10.027Z,15.13
2023-07-03T08:13:41.537Z,16.15
2023-07-03T08:16:10.604Z,12.95
2023-07-03T08:18:39.277Z,15.18
2023-07-03T08:21:08.792Z,13.57
2023-07-03T08:23:39.053Z,13.60
2023-07-03T08:26:17.562Z,15.13
2023-07-03T08:28:47.333Z,11.98
2023-07-03T08:31:16.181Z,14.88
2023-07-03T08:33:44.799Z,14.93
2023-07-03T08:38:47.302Z,15.40
2023-07-03T08:41:17.900Z,11.65
2023-07-03T08:43:47.082Z,12.07
2023-07-03T08:46:17.139Z,11.13
2023-07-03T08:48:46.498Z,12.82
2023-07-03T08:51:16.292Z,11.48
2023-07-03T08:53:46.816Z,9.38
2023-07-03T08:56:22.007Z,10.02
2023-07-03T08:58:53.852Z,13.90
2023-07-03T09:01:25.886Z,11.50
2023-07-03T09:04:01.839Z,13.50
2023-07-03T09:06:34.935Z,10.60
2023-07-03T09:09:08.353Z,11.45
2023-07-03T09:11:39.760Z,14.23
2023-07-03T09:14:08.358Z,10.10
2023-07-03T09:16:36.664Z,12.30
2023-07-03T09:19:06.480Z,9.68
2023-07-03T09:21:35.254Z,9.52
2023-07-03T09:24:07.462Z,9.32
2023-07-03T09:26:38.920Z,14.63
2023-07-03T09:29:07.649Z,10.80
2023-07-03T09:31:36.102Z,10.00
2023-07-03T09:34:04.524Z,10.10
2023-07-03T09:36:33.690Z,9.80
2023-07-03T09:39:08.518Z,11.15
2023-07-03T09:41:39.254Z,8.82
2023-07-03T09:44:13.379Z,8.85
2023-07-03T09:46:41.721Z,9.40
2023-07-03T09:49:12.650Z,11.15
2023-07-03T09:51:40.947Z,17.98
2023-07-03T09:54:10.399Z,10.05
2023-07-03T09:56:40.337Z,8.45
2023-07-03T09:59:10.541Z,10.15
2023-07-03T10:06:45.715Z,12.52
2023-07-03T10:11:53.430Z,11.50
2023-07-03T10:14:24.031Z,8.93
2023-07-03T10:16:52.879Z,11.73
2023-07-03T10:19:22.359Z,9.65
2023-07-03T10:21:50.776Z,9.90
2023-07-03T10:24:19.041Z,14.20
2023-07-03T10:26:51.326Z,11.93
2023-07-03T10:29:22.097Z,12.88
2023-07-03T10:31:51.959Z,10.07
2023-07-03T10:34:23.401Z,7.53
2023-07-03T10:36:52.306Z,9.10
2023-07-03T10:39:24.932Z,10.70
2023-07-03T10:41:59.805Z,10.70
2023-07-03T10:44:29.022Z,10.57
2023-07-03T10:46:59.860Z,6.85
2023-07-03T10:49:29.463Z,9.88
2023-07-03T10:52:04.893Z,10.38
2023-07-03T10:54:35.595Z,8.43
2023-07-03T10:57:08.955Z,9.07
2023-07-03T10:59:39.635Z,6.82
2023-07-03T11:02:14.191Z,6.75
2023-07-03T11:04:46.046Z,8.35
2023-07-03T11:07:18.680Z,6.05
2023-07-03T11:09:52.153Z,8.98
2023-07-03T11:12:26.228Z,11.20
2023-07-03T11:15:03.444Z,7.57
2023-07-03T11:17:37.168Z,10.95
2023-07-03T11:20:08.932Z,8.23
2023-07-03T11:25:14.868Z,7.95
2023-07-03T11:30:20.077Z,9.30
2023-07-03T11:32:48.923Z,5.38
2023-07-03T11:44:27.998Z,8.50
2023-07-03T11:47:50.180Z,11.13
2023-07-03T11:51:19.165Z,7.25
2023-07-03T11:54:21.843Z,7.38
2023-07-03T12:20:28.146Z,6.75
2023-07-03T12:23:12.349Z,7.78
2023-07-03T12:26:13.791Z,7.18
2023-07-03T12:29:23.433Z,7.82
2023-07-03T12:32:14.283Z,8.35
2023-07-03T12:35:17.875Z,8.88
2023-07-03T12:38:28.405Z,5.57
2023-07-03T12:41:10.782Z,15.48
2023-07-03T12:44:08.562Z,7.72
2023-07-03T12:47:42.634Z,4.88
2023-07-03T12:53:46.172Z,10.32
2023-07-03T12:56:53.000Z,6.15
2023-07-03T13:06:23.109Z,9.00
2023-07-03T13:09:43.973Z,8.43
2023-07-03T13:13:09.842Z,7.13
2023-07-03T13:16:17.220Z,6.53
2023-07-03T13:23:04.478Z,6.95
2023-07-03T13:26:13.736Z,4.57
2023-07-03T13:32:23.513Z,5.05
2023-07-03T13:35:21.388Z,6.50
2023-07-03T13:38:47.389Z,4.78
2023-07-03T13:48:49.690Z,5.82
2023-07-03T13:54:59.686Z,5.32
2023-07-03T13:58:14.960Z,7.03
2023-07-03T14:00:43.329Z,3.90
2023-07-03T14:03:17.798Z,3.30
2023-07-03T14:06:14.481Z,6.73
2023-07-03T14:08:56.642Z,4.72
2023-07-03T14:12:04.010Z,5.28
2023-07-03T14:14:34.408Z,3.13
2023-07-03T14:17:14.194Z,4.45
2023-07-03T14:22:38.652Z,5.82
2023-07-03T14:25:12.247Z,7.07
2023-07-03T14:27:44.613Z,11.15
2023-07-03T14:30:16.919Z,3.72
2023-07-03T14:32:56.639Z,6.70
2023-07-03T14:35:31.297Z,5.75
2023-07-03T14:38:06.472Z,4.07
2023-07-03T14:40:47.808Z,7.30
2023-07-03T14:43:27.803Z,4.22
2023-07-03T14:46:24.958Z,4.45
2023-07-03T14:49:07.463Z,4.97
2023-07-03T14:51:49.732Z,5.22
2023-07-03T14:54:47.998Z,4.60
2023-07-03T14:57:44.961Z,8.07
2023-07-03T15:00:33.288Z,6.28
2023-07-03T15:03:17.201Z,8.07
2023-07-03T15:06:12.586Z,5.40
2023-07-03T15:09:06.505Z,4.60
2023-07-03T15:12:31.984Z,5.95
2023-07-03T15:19:21.212Z,5.18
2023-07-03T15:26:16.015Z,4.95
2023-07-03T15:32:30.886Z,7.53
2023-07-03T15:35:44.712Z,7.97
2023-07-03T15:49:23.465Z,5.82
2023-07-03T15:56:44.931Z,6.22
2023-07-03T16:00:03.502Z,7.80
2023-07-03T16:02:35.427Z,6.70
2023-07-03T16:05:22.441Z,4.85
2023-07-03T16:08:24.012Z,5.75
2023-07-03T16:11:00.822Z,5.07
2023-07-03T16:13:55.226Z,9.82
2023-07-03T16:16:46.394Z,7.80
2023-07-03T16:19:25.359Z,5.10
2023-07-03T16:22:14.778Z,7.78
2023-07-03T16:25:19.943Z,3.70
2023-07-03T16:28:09.034Z,5.20
2023-07-03T16:30:43.668Z,5.00
2023-07-03T16:33:21.180Z,5.70
2023-07-03T16:36:25.541Z,5.82
2023-07-03T16:39:11.490Z,7.07
2023-07-03T16:44:34.036Z,6.38
2023-07-03T16:47:02.302Z,7.55
2023-07-03T16:49:30.641Z,6.70
2023-07-03T16:52:00.516Z,4.78
2023-07-03T16:54:28.724Z,4.90
2023-07-03T16:56:59.537Z,5.03
2023-07-03T16:59:30.303Z,5.07
2023-07-03T17:01:58.673Z,4.55
2023-07-03T17:04:26.919Z,7.00
2023-07-03T17:06:55.039Z,6.28
2023-07-03T17:09:23.198Z,6.63
2023-07-03T17:11:51.358Z,4.18
2023-07-03T17:14:21.453Z,6.05
2023-07-03T17:16:49.691Z,9.07
2023-07-03T17:19:17.863Z,5.25
2023-07-03T17:21:46.266Z,6.45
2023-07-03T17:24:14.408Z,7.10
2023-07-03T17:26:42.615Z,5.03
2023-07-03T17:29:10.724Z,5.93
2023-07-03T17:31:40.301Z,5.07
2023-07-03T17:34:08.454Z,7.05
2023-07-03T17:36:36.616Z,6.55
2023-07-03T17:39:05.260Z,5.15
2023-07-03T17:41:33.430Z,6.28
2023-07-03T17:44:01.647Z,7.18
2023-07-03T17:46:29.856Z,7.82
2023-07-03T17:49:00.141Z,9.48
2023-07-03T17:51:34.031Z,5.15
2023-07-03T17:54:02.296Z,7.28
2023-07-03T17:56:30.456Z,4.70
2023-07-03T17:58:59.707Z,8.68
2023-07-03T18:01:27.857Z,6.43
2023-07-03T18:03:56.177Z,6.00
2023-07-03T18:06:25.953Z,8.55
2023-07-03T18:08:54.212Z,5.63
2023-07-03T18:11:22.647Z,7.90
2023-07-03T18:13:51.897Z,5.20
2023-07-03T18:16:20.122Z,6.25
2023-07-03T18:18:48.298Z,4.97
2023-07-03T18:21:16.648Z,6.13
2023-07-03T18:23:46.699Z,5.20
2023-07-03T18:26:14.819Z,7.90
2023-07-03T18:28:42.929Z,4.78
2023-07-03T18:31:11.292Z,7.10
2023-07-03T18:33:39.478Z,6.30
2023-07-03T18:36:07.628Z,5.00
2023-07-03T18:38:35.744Z,5.03
2023-07-03T18:41:07.419Z,3.95
2023-07-03T18:43:35.606Z,5.25
2023-07-03T18:46:07.722Z,6.28
2023-07-03T18:48:35.920Z,4.80
2023-07-03T18:51:04.089Z,4.95
2023-07-03T18:53:32.347Z,4.28
2023-07-03T18:56:00.530Z,4.40
2023-07-03T18:58:30.010Z,3.67
2023-07-03T19:00:58.302Z,4.10
2023-07-03T19:03:26.436Z,4.97
2023-07-03T19:05:56.023Z,5.07
2023-07-03T19:08:24.318Z,4.50
2023-07-03T19:10:52.545Z,4.75
2023-07-03T19:13:20.705Z,5.90
2023-07-03T19:15:50.464Z,10.02
2023-07-03T19:18:18.765Z,4.18
2023-07-03T19:20:46.904Z,6.60
2023-07-03T19:23:14.995Z,5.60
2023-07-03T19:25:43.269Z,3.80
2023-07-03T19:28:11.484Z,6.50
2023-07-03T19:30:39.612Z,5.72
2023-07-03T19:33:09.201Z,6.43
2023-07-03T19:35:37.729Z,5.07
2023-07-03T19:38:05.823Z,4.00
2023-07-03T19:40:37.997Z,4.40
2023-07-03T19:43:06.218Z,5.68
2023-07-03T19:45:34.781Z,9.45
2023-07-03T19:48:04.175Z,13.85
2023-07-03T19:50:33.956Z,5.80
2023-07-03T19:53:02.116Z,9.02
2023-07-03T19:55:30.779Z,4.97
2023-07-03T19:57:58.909Z,7.97
2023-07-03T20:00:27.765Z,6.30
2023-07-03T20:02:56.863Z,8.13
2023-07-03T20:05:25.162Z,7.57
2023-07-03T20:07:54.667Z,5.43
2023-07-03T20:10:22.868Z,7.00
2023-07-03T20:12:51.785Z,4.97
2023-07-03T20:15:21.404Z,5.60
2023-07-03T20:17:50.867Z,14.88
2023-07-03T20:20:19.154Z,8.95
2023-07-03T20:22:47.375Z,6.55
2023-07-03T20:25:16.990Z,5.38
2023-07-03T20:27:45.228Z,7.80
2023-07-03T20:30:14.010Z,4.10
2023-07-03T20:32:42.663Z,3.38
2023-07-03T20:35:10.999Z,6.43
2023-07-03T20:37:39.218Z,6.85
2023-07-03T20:40:09.470Z,5.15
2023-07-03T20:42:39.108Z,6.57
2023-07-03T20:45:10.356Z,4.45
2023-07-03T20:47:38.555Z,8.43
2023-07-03T20:50:07.730Z,4.80
2023-07-03T20:52:40.967Z,8.45
2023-07-03T20:55:23.976Z,4.82
2023-07-03T20:57:53.528Z,5.32
2023-07-03T21:00:21.834Z,4.43
2023-07-03T21:02:51.789Z,5.28
2023-07-03T21:05:21.203Z,4.45
2023-07-03T21:07:49.310Z,4.20
2023-07-03T21:10:17.717Z,6.38
2023-07-03T21:12:46.657Z,7.57
2023-07-03T21:15:16.343Z,7.55
2023-07-03T21:17:46.356Z,5.30
2023-07-03T21:20:14.841Z,7.18
2023-07-03T21:22:42.957Z,6.95
2023-07-03T21:25:11.230Z,7.63
2023-07-03T21:27:39.362Z,6.97
2023-07-03T21:30:08.876Z,7.78
2023-07-03T21:32:40.730Z,5.97
2023-07-03T21:35:09.780Z,4.30
2023-07-03T21:37:37.978Z,4.43
2023-07-03T21:40:07.902Z,6.90
2023-07-03T21:42:36.101Z,5.50
2023-07-03T21:45:04.283Z,5.20
2023-07-03T21:47:32.422Z,7.88
2023-07-03T21:50:01.904Z,6.20
2023-07-03T21:52:30.066Z,6.13
2023-07-03T21:54:58.345Z,6.00
2023-07-03T21:57:26.591Z,6.63
2023-07-03T21:59:54.948Z,7.53
2023-07-03T22:02:23.096Z,6.45
2023-07-03T22:04:51.570Z,7.97
2023-07-03T22:07:21.212Z,4.47
2023-07-03T22:09:49.356Z,5.95
2023-07-03T22:12:17.500Z,8.07
2023-07-03T22:14:45.654Z,14.25
2023-07-03T22:17:13.757Z,6.20
2023-07-03T22:19:44.519Z,5.15
2023-07-03T22:22:14.497Z,6.50
2023-07-03T22:24:44.020Z,10.43
2023-07-03T22:27:12.142Z,6.32
2023-07-03T22:29:40.303Z,5.15
2023-07-03T22:32:09.700Z,6.05
2023-07-03T22:34:37.871Z,8.25
2023-07-03T22:37:06.734Z,7.68
2023-07-03T22:39:35.741Z,11.55
2023-07-03T22:42:05.938Z,7.15
2023-07-03T22:44:34.058Z,5.35
2023-07-03T22:47:02.229Z,9.32
2023-07-03T22:49:30.433Z,8.95
2023-07-03T22:51:58.657Z,7.65
2023-07-03T22:54:26.885Z,8.00
2023-07-03T22:56:55.043Z,6.43
2023-07-03T22:59:24.559Z,7.22
2023-07-03T23:01:54.223Z,8.70
2023-07-03T23:04:22.640Z,5.53
2023-07-03T23:06:50.910Z,8.95
2023-07-03T23:09:19.171Z,5.00
2023-07-03T23:11:47.679Z,6.68
2023-07-03T23:14:16.812Z,8.48
2023-07-03T23:16:48.679Z,5.68
2023-07-03T23:19:17.777Z,6.75
2023-07-03T23:21:45.985Z,5.55
2023-07-03T23:24:14.277Z,8.85
2023-07-03T23:26:42.464Z,9.20
2023-07-03T23:29:10.626Z,6.22
2023-07-03T23:31:39.893Z,5.32
2023-07-03T23:34:09.418Z,5.60
2023-07-03T23:36:37.546Z,6.05
2023-07-03T23:39:06.181Z,5.85
2023-07-03T23:41:34.648Z,5.63
2023-07-03T23:44:02.810Z,5.72
2023-07-03T23:46:32.977Z,7.00
2023-07-03T23:49:02.021Z,6.85
2023-07-03T23:51:32.478Z,6.70
2023-07-03T23:54:00.621Z,6.88
2023-07-03T23:56:28.913Z,8.20
2023-07-03T23:58:57.299Z,11.15
